Bradford County (N27)
Towanda, PA
Field Elevation: 730
Lat: 41°44.40N  Long: 76°26.83W
CTAF/Unicom Freq: 123.0000
   
     For Weather-by-Phone, call (570) 265-1024
Weather Advisories
11/23/2014 10:38 Z
Altimeter 30.11" Hg
Wind 030° @ 3 KT
Gusts --
Visibility 10 SM
Ceiling FEW050
Temperature 3° C (37° F)
Dewpoint -1° C (30° F)
Relative Humidity 79%
Density Altitude --
Condensation Altitude 2,400 feet
Wind Chill 2° C (36° F)
  Wind and Runways
Indicated Runway = 5
History
 
 
More Info
All DigiWx sites map
NOAA Forecast
 
Airport IQ 5010
(LHV) Lock Haven
(PS81) Robert Packer Hospital
 
about DigiWx
 
FAA Disclaimer: The data displayed is for advisory purposes only and is not to be used for flight planning or operations. For official data, please call (570) 265-1024 to hear the current automated AWOS voice message.
  METAR N27 231038Z AUTO 03003KT 10SM FEW050 03/M01 A3011